Time;durP1;ratioP1;P1;durP2;ratioP2;P2;SDS_P1;SDS_P2;PMS_P1;PMS_P2;Temp;Humidity;BMP_temperature;BMP_pressure;BME280_temperature;BME280_humidity;BME280_pressure;Samples;Min_cycle;Max_cycle;Signal;HPM_P1;HPM_P2
2023/05/14 00:00:24;;;;;;;;;;;12.20;99.90;;;;;;5114835;27;19974;-78
2023/05/14 00:02:49;;;;;;;;;;;12.20;99.90;;;;;;5093308;27;19931;-78
2023/05/14 00:05:15;;;;;;;;;;;12.10;99.90;;;;;;5094248;27;20023;-78
2023/05/14 00:07:41;;;;;;;;;;;12.10;99.90;;;;;;5092630;27;19966;-78
2023/05/14 00:10:06;;;;;;;;;;;12.10;99.90;;;;;;5077383;27;19927;-78
2023/05/14 00:12:32;;;;;;;;;;;12.20;99.90;;;;;;5091826;27;19931;-78
2023/05/14 00:14:57;;;;;;;;;;;12.20;99.90;;;;;;5093695;27;19942;-77
2023/05/14 00:17:23;;;;;;;;;;;12.20;99.90;;;;;;5086365;27;19934;-77
2023/05/14 00:19:48;;;;;;;;;;;12.20;99.90;;;;;;5095477;27;19928;-77
2023/05/14 00:22:14;;;;;;;;;;;12.20;99.90;;;;;;5097251;27;20578;-78
2023/05/14 00:24:39;;;;;;;;;;;12.30;99.90;;;;;;5094762;27;19927;-78
2023/05/14 00:27:06;;;;;;;;;;;12.20;99.90;;;;;;5104280;27;19927;-78
2023/05/14 00:29:31;;;;;;;;;;;12.20;99.90;;;;;;5094093;27;19930;-78
2023/05/14 00:31:57;;;;;;;;;;;12.10;99.90;;;;;;5096208;27;19951;-78
2023/05/14 00:34:23;;;;;;;;;;;12.20;99.90;;;;;;5091724;27;19977;-78
2023/05/14 00:36:49;;;;;;;;;;;12.20;99.90;;;;;;5109581;27;20407;-79
2023/05/14 00:39:15;;;;;;;;;;;12.20;99.90;;;;;;5097182;27;19932;-79
2023/05/14 00:41:40;;;;;;;;;;;12.20;99.90;;;;;;5093403;27;19952;-78
2023/05/14 00:44:06;;;;;;;;;;;12.10;99.90;;;;;;5094736;27;19979;-78
2023/05/14 00:46:31;;;;;;;;;;;12.00;99.90;;;;;;5093887;27;19931;-78
2023/05/14 00:48:57;;;;;;;;;;;12.00;99.90;;;;;;5089556;27;20015;-78
2023/05/14 00:51:23;;;;;;;;;;;12.00;99.90;;;;;;5089774;27;20295;-78
2023/05/14 00:53:49;;;;;;;;;;;11.90;99.90;;;;;;5088069;28;19928;-78
2023/05/14 00:56:15;;;;;;;;;;;12.00;99.90;;;;;;5092823;27;21275;-78
2023/05/14 00:58:41;;;;;;;;;;;11.90;99.90;;;;;;5095148;27;19984;-78
2023/05/14 01:01:06;;;;;;;;;;;11.80;99.90;;;;;;5091333;27;20010;-78
2023/05/14 01:03:32;;;;;;;;;;;11.80;99.90;;;;;;5094196;27;19927;-78
2023/05/14 01:05:59;;;;;;;;;;;11.80;99.90;;;;;;5096568;27;19962;-78
2023/05/14 01:08:35;;;;;;;;;;;11.80;99.90;;;;;;5115245;27;19962;-78
2023/05/14 01:11:07;;;;;;;;;;;11.70;99.90;;;;;;5094489;27;19932;-78
2023/05/14 01:13:32;;;;;;;;;;;11.80;99.90;;;;;;5095589;27;19931;-78
2023/05/14 01:15:59;;;;;;;;;;;11.80;99.90;;;;;;5093956;27;19931;-78
2023/05/14 01:18:26;;;;;;;;;;;11.70;99.90;;;;;;5096156;27;20254;-78
2023/05/14 01:20:53;;;;;;;;;;;11.70;99.90;;;;;;5098735;28;19963;-78
2023/05/14 01:23:18;;;;;;;;;;;11.80;99.90;;;;;;5089469;28;19927;-78
2023/05/14 01:25:44;;;;;;;;;;;11.70;99.90;;;;;;5086708;27;19934;-78
2023/05/14 01:28:21;;;;;;;;;;;11.80;99.90;;;;;;5086178;28;19980;-78
2023/05/14 01:30:52;;;;;;;;;;;11.80;99.90;;;;;;5097400;28;19934;-78
2023/05/14 01:33:19;;;;;;;;;;;11.70;99.90;;;;;;5097805;28;19923;-78
2023/05/14 01:35:45;;;;;;;;;;;11.80;99.90;;;;;;5094041;28;19927;-78
2023/05/14 01:38:12;;;;;;;;;;;11.60;99.90;;;;;;5096409;28;19949;-78
2023/05/14 01:40:38;;;;;;;;;;;11.70;99.90;;;;;;5094823;28;19935;-78
2023/05/14 01:43:03;;;;;;;;;;;11.50;99.90;;;;;;5098108;27;19982;-78
2023/05/14 01:45:29;;;;;;;;;;;11.60;99.90;;;;;;5083253;27;19928;-78
2023/05/14 01:47:55;;;;;;;;;;;11.40;99.90;;;;;;5119257;27;20383;-78
2023/05/14 01:50:21;;;;;;;;;;;11.40;99.90;;;;;;5113240;27;19981;-78
2023/05/14 01:52:47;;;;;;;;;;;11.40;99.90;;;;;;5100895;27;19951;-78
2023/05/14 01:55:12;;;;;;;;;;;11.40;99.90;;;;;;5114057;27;19931;-78
2023/05/14 01:57:38;;;;;;;;;;;11.30;99.90;;;;;;5097216;27;20439;-78
2023/05/14 02:00:04;;;;;;;;;;;11.30;99.90;;;;;;5097984;27;19935;-78
2023/05/14 02:02:30;;;;;;;;;;;11.30;99.90;;;;;;5099038;27;19927;-78
2023/05/14 02:04:55;;;;;;;;;;;11.30;99.90;;;;;;5100364;27;19938;-78
2023/05/14 02:07:21;;;;;;;;;;;11.30;99.90;;;;;;5115842;27;19980;-78
2023/05/14 02:09:46;;;;;;;;;;;11.20;99.90;;;;;;5101227;27;19934;-78
2023/05/14 02:12:12;;;;;;;;;;;11.10;99.90;;;;;;5115762;27;19931;-78
2023/05/14 02:14:37;;;;;;;;;;;11.10;99.90;;;;;;5099636;27;20528;-78
2023/05/14 02:17:03;;;;;;;;;;;11.00;99.90;;;;;;5067399;27;20599;-78
2023/05/14 02:19:29;;;;;;;;;;;11.00;99.90;;;;;;5088933;27;19988;-79
2023/05/14 02:21:54;;;;;;;;;;;11.00;99.90;;;;;;5117768;27;19980;-78
2023/05/14 02:24:20;;;;;;;;;;;11.00;99.90;;;;;;5095858;27;20589;-78
2023/05/14 02:26:46;;;;;;;;;;;11.00;99.90;;;;;;5084030;27;19927;-78
2023/05/14 02:29:11;;;;;;;;;;;10.90;99.90;;;;;;5100772;27;19935;-78
2023/05/14 02:31:37;;;;;;;;;;;10.70;99.90;;;;;;5110188;27;20299;-79
2023/05/14 02:34:03;;;;;;;;;;;10.80;99.90;;;;;;5048121;27;20241;-78
2023/05/14 02:36:29;;;;;;;;;;;10.90;99.90;;;;;;5104061;27;19935;-79
2023/05/14 02:38:57;;;;;;;;;;;11.00;99.90;;;;;;5084008;27;20441;-78
2023/05/14 02:41:23;;;;;;;;;;;10.90;99.90;;;;;;5084361;27;19934;-78
2023/05/14 02:43:48;;;;;;;;;;;10.80;99.90;;;;;;5079325;27;19927;-79
2023/05/14 02:46:14;;;;;;;;;;;10.80;99.90;;;;;;5100600;27;19927;-79
2023/05/14 02:48:39;;;;;;;;;;;10.90;99.90;;;;;;5083833;27;19928;-78
2023/05/14 02:51:06;;;;;;;;;;;10.80;99.90;;;;;;5082806;27;20297;-78
2023/05/14 02:53:31;;;;;;;;;;;11.00;99.90;;;;;;5096589;27;19931;-79
2023/05/14 02:55:57;;;;;;;;;;;10.80;99.90;;;;;;5063224;27;19923;-78
2023/05/14 02:58:23;;;;;;;;;;;10.70;99.90;;;;;;5087803;27;19927;-78
2023/05/14 03:00:48;;;;;;;;;;;10.60;99.90;;;;;;5091308;27;19928;-78
2023/05/14 03:03:14;;;;;;;;;;;10.60;99.90;;;;;;5092687;27;19988;-78
2023/05/14 03:05:39;;;;;;;;;;;10.70;99.90;;;;;;5097344;27;19931;-78
2023/05/14 03:08:05;;;;;;;;;;;10.80;99.90;;;;;;5096712;27;19978;-78
2023/05/14 03:10:31;;;;;;;;;;;10.70;99.90;;;;;;5094255;27;20001;-78
2023/05/14 03:12:57;;;;;;;;;;;10.80;99.90;;;;;;5097895;27;19927;-79
2023/05/14 03:15:23;;;;;;;;;;;10.60;99.90;;;;;;5111278;27;19934;-78
2023/05/14 03:17:48;;;;;;;;;;;10.60;99.90;;;;;;5095723;27;19934;-79
2023/05/14 03:20:14;;;;;;;;;;;10.70;99.90;;;;;;5097253;27;19984;-78
2023/05/14 03:22:39;;;;;;;;;;;10.60;99.90;;;;;;5100566;27;19972;-78
2023/05/14 03:25:05;;;;;;;;;;;10.50;99.90;;;;;;5094886;27;20039;-78
2023/05/14 03:27:30;;;;;;;;;;;10.50;99.90;;;;;;5095193;27;20586;-79
2023/05/14 03:29:56;;;;;;;;;;;10.40;99.90;;;;;;5116063;27;19927;-78
2023/05/14 03:32:21;;;;;;;;;;;10.40;99.90;;;;;;5096705;27;19931;-78
2023/05/14 03:34:47;;;;;;;;;;;10.40;99.90;;;;;;5117651;27;19923;-78
2023/05/14 03:37:12;;;;;;;;;;;10.30;99.90;;;;;;5079946;27;20383;-78
2023/05/14 03:39:38;;;;;;;;;;;10.50;99.90;;;;;;5095844;27;20749;-78
2023/05/14 03:42:04;;;;;;;;;;;10.40;99.90;;;;;;5094633;27;19927;-79
2023/05/14 03:44:29;;;;;;;;;;;10.40;99.90;;;;;;5097705;27;20532;-79
2023/05/14 03:46:55;;;;;;;;;;;10.30;99.90;;;;;;5097432;27;19934;-80
2023/05/14 03:49:20;;;;;;;;;;;10.30;99.90;;;;;;5116017;27;19927;-79
2023/05/14 03:51:46;;;;;;;;;;;10.30;99.90;;;;;;5097588;27;19966;-78
2023/05/14 03:54:11;;;;;;;;;;;10.20;99.90;;;;;;5114796;27;19927;-78
2023/05/14 03:56:37;;;;;;;;;;;10.30;99.90;;;;;;5090189;27;20394;-78
2023/05/14 03:59:02;;;;;;;;;;;10.30;99.90;;;;;;5096683;27;19931;-79
2023/05/14 04:01:28;;;;;;;;;;;10.20;99.90;;;;;;5092321;27;19928;-78
2023/05/14 04:03:53;;;;;;;;;;;10.40;99.90;;;;;;5092687;27;19950;-79
2023/05/14 04:06:19;;;;;;;;;;;10.50;99.90;;;;;;5094068;27;19938;-80
2023/05/14 04:08:44;;;;;;;;;;;10.60;99.90;;;;;;5077926;27;19928;-79
2023/05/14 04:11:10;;;;;;;;;;;10.30;99.90;;;;;;5096487;27;19954;-79
2023/05/14 04:13:35;;;;;;;;;;;10.40;99.90;;;;;;5091596;27;20932;-79
2023/05/14 04:16:01;;;;;;;;;;;10.10;99.90;;;;;;5094658;27;20341;-79
2023/05/14 04:18:27;;;;;;;;;;;10.30;99.90;;;;;;5095763;27;19950;-79
2023/05/14 04:20:53;;;;;;;;;;;10.50;99.90;;;;;;5072063;27;19928;-79
2023/05/14 04:23:18;;;;;;;;;;;10.60;99.90;;;;;;5093251;27;20064;-79
2023/05/14 04:25:44;;;;;;;;;;;10.70;99.90;;;;;;5110076;27;19928;-79
2023/05/14 04:28:09;;;;;;;;;;;10.50;99.90;;;;;;5096923;27;20004;-79
2023/05/14 04:30:35;;;;;;;;;;;10.40;99.90;;;;;;5097952;27;19974;-79
2023/05/14 04:33:01;;;;;;;;;;;10.40;99.90;;;;;;5097299;27;19927;-79
2023/05/14 04:35:26;;;;;;;;;;;10.60;99.90;;;;;;5093391;27;19932;-79
2023/05/14 04:37:52;;;;;;;;;;;10.70;99.90;;;;;;5096276;27;19923;-79
2023/05/14 04:40:17;;;;;;;;;;;10.80;99.90;;;;;;5094271;27;19927;-79
2023/05/14 04:42:43;;;;;;;;;;;10.90;99.90;;;;;;5096562;27;19927;-79
2023/05/14 04:45:09;;;;;;;;;;;10.80;99.90;;;;;;5109263;27;19928;-79
2023/05/14 04:47:35;;;;;;;;;;;10.80;99.90;;;;;;5096406;27;19934;-79
2023/05/14 04:50:00;;;;;;;;;;;10.80;99.90;;;;;;5095250;27;19928;-79
2023/05/14 04:52:26;;;;;;;;;;;10.90;99.90;;;;;;5109400;27;19923;-79
2023/05/14 04:54:51;;;;;;;;;;;11.00;99.90;;;;;;5094571;27;19947;-79
2023/05/14 04:57:17;;;;;;;;;;;11.10;99.90;;;;;;5086228;27;20668;-79
2023/05/14 04:59:42;;;;;;;;;;;11.20;99.90;;;;;;5092608;27;19950;-79
2023/05/14 05:02:08;;;;;;;;;;;11.40;99.90;;;;;;5091548;27;20048;-79
2023/05/14 05:04:33;;;;;;;;;;;11.50;99.90;;;;;;5096821;27;19934;-79
2023/05/14 05:06:59;;;;;;;;;;;12.00;99.90;;;;;;5081723;27;19928;-79
2023/05/14 05:09:25;;;;;;;;;;;12.20;99.90;;;;;;5093044;27;19924;-79
2023/05/14 05:11:50;;;;;;;;;;;12.50;99.90;;;;;;5096362;27;19953;-79
2023/05/14 05:14:16;;;;;;;;;;;13.10;99.90;;;;;;5091767;27;20461;-79
2023/05/14 05:16:41;;;;;;;;;;;13.30;99.90;;;;;;5088427;28;20627;-79
2023/05/14 05:19:07;;;;;;;;;;;13.40;99.90;;;;;;5101126;27;20587;-79
2023/05/14 05:21:32;;;;;;;;;;;13.30;99.90;;;;;;5087847;28;19932;-79
2023/05/14 05:23:58;;;;;;;;;;;13.30;99.90;;;;;;5091240;28;19935;-79
2023/05/14 05:26:25;;;;;;;;;;;13.30;99.90;;;;;;5093784;27;20403;-79
2023/05/14 05:28:51;;;;;;;;;;;13.30;99.90;;;;;;5096116;28;20457;-79
2023/05/14 05:31:16;;;;;;;;;;;13.50;99.90;;;;;;5091591;28;20016;-79
2023/05/14 05:33:42;;;;;;;;;;;13.60;99.90;;;;;;5095956;27;19931;-79
2023/05/14 05:36:08;;;;;;;;;;;13.80;99.90;;;;;;5097398;27;20347;-79
2023/05/14 05:38:33;;;;;;;;;;;14.30;99.90;;;;;;5097729;27;19969;-79
2023/05/14 05:40:59;;;;;;;;;;;14.80;99.90;;;;;;5093503;28;19924;-78
2023/05/14 05:43:24;;;;;;;;;;;15.40;99.90;;;;;;5095469;28;19959;-79
2023/05/14 05:45:50;;;;;;;;;;;15.20;99.90;;;;;;5094297;28;19931;-79
2023/05/14 05:48:15;;;;;;;;;;;15.00;99.90;;;;;;5099396;27;19984;-79
2023/05/14 05:50:43;;;;;;;;;;;15.20;99.90;;;;;;5091624;28;19935;-79
2023/05/14 05:53:09;;;;;;;;;;;15.20;99.90;;;;;;5092783;28;20018;-79
2023/05/14 05:55:34;;;;;;;;;;;15.50;99.90;;;;;;5094518;28;19928;-79
2023/05/14 05:58:00;;;;;;;;;;;15.60;99.90;;;;;;5091920;28;19976;-79
2023/05/14 06:00:26;;;;;;;;;;;15.70;99.90;;;;;;5092912;28;20399;-79
2023/05/14 06:02:51;;;;;;;;;;;15.60;99.90;;;;;;5095479;28;19963;-79
2023/05/14 06:05:18;;;;;;;;;;;15.50;99.90;;;;;;5095581;27;20556;-79
2023/05/14 06:07:43;;;;;;;;;;;15.60;99.90;;;;;;5095430;28;19923;-79
2023/05/14 06:10:09;;;;;;;;;;;15.40;99.90;;;;;;5091161;28;19931;-79
2023/05/14 06:12:35;;;;;;;;;;;15.40;99.90;;;;;;5081968;27;19939;-79
2023/05/14 06:15:00;;;;;;;;;;;15.30;99.90;;;;;;5071479;28;19935;-79
2023/05/14 06:17:27;;;;;;;;;;;15.20;99.90;;;;;;5090960;28;20408;-80
2023/05/14 06:19:53;;;;;;;;;;;15.10;99.90;;;;;;5076309;28;20080;-80
2023/05/14 06:22:19;;;;;;;;;;;15.30;99.90;;;;;;5092317;27;20295;-79
2023/05/14 06:24:44;;;;;;;;;;;15.40;99.90;;;;;;5107269;27;19931;-79
2023/05/14 06:27:10;;;;;;;;;;;15.50;99.90;;;;;;5091759;28;19931;-79
2023/05/14 06:29:36;;;;;;;;;;;15.20;99.90;;;;;;5096518;27;20463;-80
2023/05/14 06:32:02;;;;;;;;;;;15.40;99.90;;;;;;5081265;27;20500;-79
2023/05/14 06:34:28;;;;;;;;;;;15.50;99.90;;;;;;5083011;27;20368;-81
2023/05/14 06:36:53;;;;;;;;;;;15.80;99.90;;;;;;5096662;27;19934;-80
2023/05/14 06:39:19;;;;;;;;;;;15.70;99.90;;;;;;5113813;27;19977;-79
2023/05/14 06:41:44;;;;;;;;;;;15.40;99.90;;;;;;5088612;27;20014;-79
2023/05/14 06:44:10;;;;;;;;;;;15.20;99.90;;;;;;5095611;27;19931;-79
2023/05/14 06:46:36;;;;;;;;;;;15.10;99.90;;;;;;5097569;27;19927;-79
2023/05/14 06:49:01;;;;;;;;;;;15.60;99.90;;;;;;5097214;27;19923;-79
2023/05/14 06:51:27;;;;;;;;;;;16.10;99.90;;;;;;5099870;27;19927;-79
2023/05/14 06:53:53;;;;;;;;;;;16.50;99.90;;;;;;5094453;27;19937;-80
2023/05/14 06:56:20;;;;;;;;;;;16.70;99.90;;;;;;5100077;27;19924;-79
2023/05/14 06:58:46;;;;;;;;;;;16.70;99.90;;;;;;5097716;27;19931;-79
2023/05/14 07:01:11;;;;;;;;;;;16.90;99.90;;;;;;5100361;27;20436;-79
2023/05/14 07:03:37;;;;;;;;;;;16.70;99.90;;;;;;5095462;27;20010;-79
2023/05/14 07:06:02;;;;;;;;;;;16.50;99.90;;;;;;5098968;27;21630;-79
2023/05/14 07:08:28;;;;;;;;;;;17.00;99.90;;;;;;5094040;27;20382;-80
2023/05/14 07:10:53;;;;;;;;;;;16.70;99.90;;;;;;5101146;27;19927;-80
2023/05/14 07:13:19;;;;;;;;;;;16.30;99.90;;;;;;5099447;27;19927;-79
2023/05/14 07:15:44;;;;;;;;;;;16.90;99.90;;;;;;5093584;27;19934;-79
2023/05/14 07:18:10;;;;;;;;;;;17.30;99.90;;;;;;5101858;27;20384;-79
2023/05/14 07:20:35;;;;;;;;;;;17.50;99.90;;;;;;5097728;27;19954;-78
2023/05/14 07:23:01;;;;;;;;;;;18.10;99.90;;;;;;5094940;27;19962;-78
2023/05/14 07:25:26;;;;;;;;;;;18.30;99.90;;;;;;5080754;27;19927;-79
2023/05/14 07:27:52;;;;;;;;;;;18.40;99.90;;;;;;5092093;27;20392;-79
2023/05/14 07:30:18;;;;;;;;;;;18.10;99.90;;;;;;5099322;27;20014;-79
2023/05/14 07:32:43;;;;;;;;;;;18.40;99.90;;;;;;5098410;27;19974;-79
2023/05/14 07:35:10;;;;;;;;;;;18.50;99.90;;;;;;5114443;27;20104;-80
2023/05/14 07:37:36;;;;;;;;;;;18.20;99.90;;;;;;5098551;27;19931;-79
2023/05/14 07:40:01;;;;;;;;;;;18.90;99.90;;;;;;5098311;27;19984;-79
2023/05/14 07:42:27;;;;;;;;;;;19.20;99.90;;;;;;5097306;27;19934;-79
2023/05/14 07:44:53;;;;;;;;;;;19.00;99.90;;;;;;5113037;27;19931;-79
2023/05/14 07:47:18;;;;;;;;;;;18.80;99.90;;;;;;5095539;27;19928;-80
2023/05/14 07:49:44;;;;;;;;;;;19.20;99.90;;;;;;5100603;27;19977;-80
2023/05/14 07:52:09;;;;;;;;;;;18.70;99.90;;;;;;5098513;27;19927;-79
2023/05/14 07:54:35;;;;;;;;;;;18.50;99.90;;;;;;5085352;27;20371;-79
2023/05/14 07:57:00;;;;;;;;;;;18.90;99.90;;;;;;5097118;27;20317;-79
2023/05/14 07:59:26;;;;;;;;;;;18.80;99.90;;;;;;5096798;27;20027;-79
2023/05/14 08:01:51;;;;;;;;;;;18.40;99.90;;;;;;5094101;27;19935;-79
2023/05/14 08:04:17;;;;;;;;;;;18.50;99.90;;;;;;5088858;27;19928;-79
2023/05/14 08:06:42;;;;;;;;;;;18.90;99.90;;;;;;5089571;27;19963;-79
2023/05/14 08:09:08;;;;;;;;;;;18.90;99.90;;;;;;5084876;27;19996;-79
2023/05/14 08:11:34;;;;;;;;;;;19.70;99.90;;;;;;5092418;27;19943;-78
2023/05/14 08:13:59;;;;;;;;;;;18.70;99.90;;;;;;5095441;27;20052;-78
2023/05/14 08:16:25;;;;;;;;;;;18.70;99.90;;;;;;5114114;27;19957;-79
2023/05/14 08:18:51;;;;;;;;;;;18.60;99.90;;;;;;5092224;27;20090;-79
2023/05/14 08:21:16;;;;;;;;;;;18.80;99.90;;;;;;5097436;27;19928;-79
2023/05/14 08:23:45;;;;;;;;;;;17.80;99.90;;;;;;5093113;27;19927;-79
2023/05/14 08:26:10;;;;;;;;;;;18.40;99.90;;;;;;5094416;27;19934;-80
2023/05/14 08:28:36;;;;;;;;;;;18.10;99.90;;;;;;5093937;27;19927;-78
2023/05/14 08:31:01;;;;;;;;;;;17.90;99.90;;;;;;5095527;27;19931;-79
2023/05/14 08:33:27;;;;;;;;;;;17.80;99.90;;;;;;5094614;27;19927;-79
2023/05/14 08:35:53;;;;;;;;;;;18.80;99.90;;;;;;5096266;27;19984;-79
2023/05/14 08:38:19;;;;;;;;;;;18.80;99.90;;;;;;5092772;27;19996;-79
2023/05/14 08:40:53;;;;;;;;;;;18.50;99.90;;;;;;5094964;27;19931;-79
2023/05/14 08:43:19;;;;;;;;;;;18.50;99.90;;;;;;5115576;27;20316;-79
2023/05/14 08:45:45;;;;;;;;;;;19.20;99.90;;;;;;5080229;27;19934;-80
2023/05/14 08:48:11;;;;;;;;;;;18.90;99.90;;;;;;5092773;27;19927;-79
2023/05/14 08:50:37;;;;;;;;;;;18.60;99.90;;;;;;5096093;27;19927;-79
2023/05/14 08:53:02;;;;;;;;;;;19.00;99.90;;;;;;5094067;27;20084;-79
2023/05/14 08:55:28;;;;;;;;;;;19.60;99.90;;;;;;5095316;27;19930;-79
2023/05/14 08:57:54;;;;;;;;;;;19.60;99.90;;;;;;5088761;27;19975;-77
2023/05/14 09:00:21;;;;;;;;;;;19.40;99.90;;;;;;5076281;28;19928;-79
2023/05/14 09:02:47;;;;;;;;;;;19.80;99.90;;;;;;5109459;27;19931;-79
2023/05/14 09:05:13;;;;;;;;;;;19.80;99.90;;;;;;5113459;27;19928;-79
2023/05/14 09:07:39;;;;;;;;;;;19.10;99.90;;;;;;5094224;27;19927;-79
2023/05/14 09:10:05;;;;;;;;;;;19.10;99.90;;;;;;5091861;27;19931;-80
2023/05/14 09:12:30;;;;;;;;;;;19.50;99.90;;;;;;5077635;27;19954;-79
2023/05/14 09:14:56;;;;;;;;;;;19.60;99.90;;;;;;5094644;27;20368;-79
2023/05/14 09:17:24;;;;;;;;;;;19.90;99.90;;;;;;5084890;27;19927;-79
2023/05/14 09:19:51;;;;;;;;;;;20.20;99.90;;;;;;5109917;27;19924;-79
2023/05/14 09:22:17;;;;;;;;;;;20.70;99.90;;;;;;5090312;28;19924;-79
2023/05/14 09:24:43;;;;;;;;;;;21.00;99.90;;;;;;5088157;28;19938;-79
2023/05/14 09:27:14;;;;;;;;;;;21.30;99.90;;;;;;5088867;28;19935;-75
2023/05/14 09:29:39;;;;;;;;;;;21.10;99.90;;;;;;5089149;28;20038;-79
2023/05/14 09:32:06;;;;;;;;;;;21.40;99.90;;;;;;5094944;28;20291;-79
2023/05/14 09:34:32;;;;;;;;;;;21.10;99.90;;;;;;5092261;28;20615;-79
2023/05/14 09:36:59;;;;;;;;;;;21.70;99.90;;;;;;5091165;28;19932;-79
2023/05/14 09:39:27;;;;;;;;;;;21.80;99.90;;;;;;5094615;28;19927;-81
2023/05/14 09:41:54;;;;;;;;;;;20.70;99.90;;;;;;5073198;28;20332;-79
2023/05/14 09:44:20;;;;;;;;;;;20.40;99.90;;;;;;5092600;28;20588;-79
2023/05/14 09:46:46;;;;;;;;;;;21.00;99.90;;;;;;5092241;28;19923;-79
2023/05/14 09:49:12;;;;;;;;;;;20.40;99.90;;;;;;5091688;28;19977;-81
2023/05/14 09:51:38;;;;;;;;;;;20.80;99.90;;;;;;5113754;28;20047;-80
2023/05/14 09:54:05;;;;;;;;;;;21.40;99.90;;;;;;5089961;28;19935;-81
2023/05/14 09:56:34;;;;;;;;;;;21.30;99.90;;;;;;5109143;27;20648;-80
2023/05/14 09:59:00;;;;;;;;;;;21.40;99.90;;;;;;5094998;28;19996;-81
2023/05/14 10:01:27;;;;;;;;;;;21.00;99.90;;;;;;5094538;28;19935;-80
2023/05/14 10:03:53;;;;;;;;;;;21.70;99.90;;;;;;5064499;27;20384;-79
2023/05/14 10:06:21;;;;;;;;;;;21.80;99.90;;;;;;5100292;27;19927;-80
2023/05/14 10:08:47;;;;;;;;;;;21.80;99.90;;;;;;5107881;27;20337;-80
2023/05/14 10:11:33;;;;;;;;;;;21.40;99.90;;;;;;5092991;27;20517;-80
2023/05/14 10:14:05;;;;;;;;;;;21.80;99.90;;;;;;5085460;27;19924;-80
2023/05/14 10:16:32;;;;;;;;;;;21.30;99.90;;;;;;5081423;27;19931;-80
2023/05/14 10:19:06;;;;;;;;;;;21.00;99.90;;;;;;5104552;27;19930;-80
2023/05/14 10:21:33;;;;;;;;;;;21.60;99.90;;;;;;5088136;27;19931;-80
2023/05/14 10:23:59;;;;;;;;;;;21.70;99.90;;;;;;5092917;27;19932;-80
2023/05/14 10:26:24;;;;;;;;;;;21.60;99.90;;;;;;5093078;27;19927;-80
2023/05/14 10:28:50;;;;;;;;;;;22.30;99.90;;;;;;5093275;27;20780;-80
2023/05/14 10:31:16;;;;;;;;;;;22.10;99.90;;;;;;5078445;27;20624;-80
2023/05/14 10:33:45;;;;;;;;;;;22.60;99.90;;;;;;5101733;27;19934;-80
2023/05/14 10:36:17;;;;;;;;;;;22.30;99.90;;;;;;5102502;27;19928;-80
2023/05/14 10:38:43;;;;;;;;;;;22.80;99.90;;;;;;5117931;27;19932;-81
2023/05/14 10:41:14;;;;;;;;;;;22.70;99.90;;;;;;5121099;27;20248;-81
2023/05/14 10:43:40;;;;;;;;;;;22.60;99.90;;;;;;5118677;27;19936;-81
2023/05/14 10:46:07;;;;;;;;;;;21.80;99.90;;;;;;5081155;27;19928;-80
2023/05/14 10:48:33;;;;;;;;;;;21.80;99.90;;;;;;5114918;27;19931;-80
2023/05/14 10:50:59;;;;;;;;;;;22.20;99.90;;;;;;5107192;27;19981;-80
2023/05/14 10:53:41;;;;;;;;;;;22.30;99.90;;;;;;5123135;27;19984;-80
2023/05/14 10:56:08;;;;;;;;;;;21.80;99.90;;;;;;5118907;27;19935;-79
2023/05/14 10:58:37;;;;;;;;;;;21.70;99.90;;;;;;5115790;27;19927;-80
2023/05/14 11:01:05;;;;;;;;;;;22.60;99.90;;;;;;5116857;27;19935;-80
2023/05/14 11:03:31;;;;;;;;;;;22.70;99.90;;;;;;5096826;27;19970;-80
2023/05/14 11:05:56;;;;;;;;;;;22.20;99.90;;;;;;5103566;27;19971;-80
2023/05/14 11:08:24;;;;;;;;;;;22.50;99.90;;;;;;5102996;27;19928;-81
2023/05/14 11:10:51;;;;;;;;;;;22.30;99.90;;;;;;5102065;27;19939;-80
2023/05/14 11:13:17;;;;;;;;;;;22.50;99.90;;;;;;5098177;27;19931;-80
2023/05/14 11:15:46;;;;;;;;;;;22.80;99.90;;;;;;5083145;27;19938;-80
2023/05/14 11:18:12;;;;;;;;;;;22.50;99.90;;;;;;5120277;27;19935;-80
2023/05/14 11:20:38;;;;;;;;;;;22.80;99.90;;;;;;5103908;27;19927;-80
2023/05/14 11:23:03;;;;;;;;;;;22.80;99.90;;;;;;5121340;27;19935;-80
2023/05/14 11:25:29;;;;;;;;;;;23.20;99.90;;;;;;5121681;27;19979;-80
2023/05/14 11:27:57;;;;;;;;;;;23.60;99.90;;;;;;5102807;27;20057;-80
2023/05/14 11:30:23;;;;;;;;;;;23.30;99.90;;;;;;5121624;27;20401;-80
2023/05/14 11:32:49;;;;;;;;;;;23.30;99.90;;;;;;5122814;27;20416;-80
2023/05/14 11:35:15;;;;;;;;;;;23.30;99.90;;;;;;5123087;27;19932;-81
2023/05/14 11:37:41;;;;;;;;;;;23.50;99.90;;;;;;5107182;27;20376;-80
2023/05/14 11:40:11;;;;;;;;;;;23.50;99.90;;;;;;5123662;27;20304;-79
2023/05/14 11:42:37;;;;;;;;;;;23.50;99.90;;;;;;5121150;27;19931;-79
2023/05/14 11:45:03;;;;;;;;;;;24.30;99.90;;;;;;5122894;27;19933;-80
2023/05/14 11:47:30;;;;;;;;;;;24.50;99.90;;;;;;5124267;27;19927;-80
2023/05/14 11:49:55;;;;;;;;;;;24.70;99.90;;;;;;5099495;27;19930;-80
2023/05/14 11:52:21;;;;;;;;;;;24.50;99.90;;;;;;5098381;27;19924;-80
2023/05/14 11:54:48;;;;;;;;;;;24.50;99.90;;;;;;5121970;27;19927;-80
2023/05/14 11:57:20;;;;;;;;;;;24.40;99.90;;;;;;5118187;27;19942;-80
2023/05/14 11:59:46;;;;;;;;;;;24.50;99.90;;;;;;5081789;27;19923;-80
2023/05/14 12:02:14;;;;;;;;;;;24.20;99.90;;;;;;5118274;27;20022;-82
2023/05/14 12:04:48;;;;;;;;;;;24.10;99.90;;;;;;5117372;27;19931;-78
2023/05/14 12:07:15;;;;;;;;;;;24.30;99.90;;;;;;5098105;27;19927;-79
2023/05/14 12:09:50;;;;;;;;;;;23.40;96.80;;;;;;5113639;27;19943;-78
2023/05/14 12:12:21;;;;;;;;;;;23.80;99.90;;;;;;5116723;27;20404;-77
2023/05/14 12:14:47;;;;;;;;;;;23.90;99.90;;;;;;5113292;27;20055;-77
2023/05/14 12:17:16;;;;;;;;;;;24.40;99.90;;;;;;5123557;27;19935;-77
2023/05/14 12:19:42;;;;;;;;;;;24.50;99.90;;;;;;5100606;27;19934;-77
2023/05/14 12:22:08;;;;;;;;;;;24.50;99.90;;;;;;5119179;27;19928;-78
2023/05/14 12:24:34;;;;;;;;;;;24.70;99.90;;;;;;5118608;27;19928;-78
2023/05/14 12:27:00;;;;;;;;;;;24.40;98.90;;;;;;5114757;27;19924;-78
2023/05/14 12:29:25;;;;;;;;;;;24.60;99.90;;;;;;5119977;27;19934;-78
2023/05/14 12:31:51;;;;;;;;;;;24.90;99.10;;;;;;5120572;27;20652;-78
2023/05/14 12:34:17;;;;;;;;;;;25.20;99.90;;;;;;5122762;27;19931;-80
2023/05/14 12:36:43;;;;;;;;;;;24.50;97.70;;;;;;5124096;27;20359;-79
2023/05/14 12:39:09;;;;;;;;;;;23.50;92.20;;;;;;5123991;27;19989;-79
2023/05/14 12:41:34;;;;;;;;;;;24.40;99.10;;;;;;5119907;27;19938;-79
2023/05/14 12:44:01;;;;;;;;;;;24.70;99.90;;;;;;5123854;27;19928;-78
2023/05/14 12:46:26;;;;;;;;;;;24.60;95.60;;;;;;5099698;27;20022;-78
2023/05/14 12:48:53;;;;;;;;;;;23.70;91.20;;;;;;5119295;27;20076;-80
2023/05/14 12:51:19;;;;;;;;;;;23.80;91.40;;;;;;5119625;27;19935;-80
2023/05/14 12:53:45;;;;;;;;;;;24.30;95.70;;;;;;5121010;27;19923;-80
2023/05/14 12:56:10;;;;;;;;;;;24.40;96.30;;;;;;5118899;27;19931;-80
2023/05/14 12:58:36;;;;;;;;;;;23.50;97.40;;;;;;5101838;27;20367;-80
2023/05/14 13:01:02;;;;;;;;;;;24.20;95.80;;;;;;5118579;27;20319;-81
2023/05/14 13:03:28;;;;;;;;;;;24.20;98.40;;;;;;5121286;27;19927;-79
2023/05/14 13:05:53;;;;;;;;;;;23.90;97.50;;;;;;5118913;27;19939;-80
2023/05/14 13:08:24;;;;;;;;;;;24.00;98.00;;;;;;5123867;27;20014;-80
2023/05/14 13:10:51;;;;;;;;;;;24.00;95.10;;;;;;5102691;27;20057;-80
2023/05/14 13:13:16;;;;;;;;;;;24.20;96.80;;;;;;5100145;27;19934;-79
2023/05/14 13:15:42;;;;;;;;;;;23.90;95.60;;;;;;5101283;27;19923;-80
2023/05/14 13:18:07;;;;;;;;;;;24.40;98.20;;;;;;5104601;27;19934;-79
2023/05/14 13:20:33;;;;;;;;;;;24.50;99.90;;;;;;5118733;27;19939;-80
2023/05/14 13:22:59;;;;;;;;;;;24.40;99.90;;;;;;5119410;27;19927;-79
2023/05/14 13:25:24;;;;;;;;;;;24.50;99.80;;;;;;5122175;27;20424;-80
2023/05/14 13:27:50;;;;;;;;;;;24.50;99.90;;;;;;5122709;27;19992;-79
2023/05/14 13:30:19;;;;;;;;;;;24.40;99.90;;;;;;5101661;27;19939;-80
2023/05/14 13:32:45;;;;;;;;;;;24.30;97.70;;;;;;5103615;28;19976;-79
2023/05/14 13:35:11;;;;;;;;;;;23.80;92.10;;;;;;5121440;27;19935;-79
2023/05/14 13:37:36;;;;;;;;;;;24.10;97.50;;;;;;5122482;27;20396;-79
2023/05/14 13:40:08;;;;;;;;;;;24.20;96.50;;;;;;5120860;27;19935;-80
2023/05/14 13:42:34;;;;;;;;;;;24.10;99.90;;;;;;5117813;28;20026;-79
2023/05/14 13:45:00;;;;;;;;;;;23.80;98.20;;;;;;5098365;28;19939;-80
2023/05/14 13:47:25;;;;;;;;;;;23.40;94.60;;;;;;5095353;28;20308;-80
2023/05/14 13:49:52;;;;;;;;;;;23.50;96.50;;;;;;5113085;28;20443;-80
2023/05/14 13:52:17;;;;;;;;;;;23.30;94.30;;;;;;5094743;28;19928;-80
2023/05/14 13:54:43;;;;;;;;;;;23.30;94.30;;;;;;5113456;28;20367;-81
2023/05/14 13:57:09;;;;;;;;;;;23.20;95.10;;;;;;5116309;28;20316;-80
2023/05/14 13:59:34;;;;;;;;;;;23.40;98.80;;;;;;5116469;28;20363;-80
2023/05/14 14:02:00;;;;;;;;;;;23.40;99.10;;;;;;5117105;28;20066;-80
2023/05/14 14:04:27;;;;;;;;;;;23.20;99.90;;;;;;5094826;28;19958;-80
2023/05/14 14:06:53;;;;;;;;;;;23.30;99.90;;;;;;5111367;28;20000;-80
2023/05/14 14:09:19;;;;;;;;;;;23.30;99.90;;;;;;5114796;27;19959;-81